sensor_id;sensor_type;location;lat;lon;timestamp;pressure;altitude;pressure_sealevel;temperature;humidity
60212;BME280;46079;48.686;15.598;2023-03-12T00:01:33;99503.38;;;18.71;33.52
60212;BME280;46079;48.686;15.598;2023-03-12T00:04:01;99506.94;;;18.70;33.40
60212;BME280;46079;48.686;15.598;2023-03-12T00:06:27;99508.75;;;18.70;33.52
60212;BME280;46079;48.686;15.598;2023-03-12T00:08:52;99507.91;;;18.69;33.67
60212;BME280;46079;48.686;15.598;2023-03-12T00:11:19;99522.81;;;18.69;33.48
60212;BME280;46079;48.686;15.598;2023-03-12T00:13:49;99514.97;;;18.69;33.56
60212;BME280;46079;48.686;15.598;2023-03-12T00:16:15;99520.19;;;18.69;33.63
60212;BME280;46079;48.686;15.598;2023-03-12T00:18:41;99527.22;;;18.68;33.34
60212;BME280;46079;48.686;15.598;2023-03-12T00:21:08;99535.91;;;18.69;33.41
60212;BME280;46079;48.686;15.598;2023-03-12T00:23:34;99524.72;;;18.66;33.43
60212;BME280;46079;48.686;15.598;2023-03-12T00:26:01;99531.63;;;18.67;33.43
60212;BME280;46079;48.686;15.598;2023-03-12T00:28:28;99529.97;;;18.66;33.52
60212;BME280;46079;48.686;15.598;2023-03-12T00:30:53;99536.03;;;18.67;33.49
60212;BME280;46079;48.686;15.598;2023-03-12T00:33:19;99535.22;;;18.66;33.48
60212;BME280;46079;48.686;15.598;2023-03-12T00:35:44;99535.22;;;18.66;33.54
60212;BME280;46079;48.686;15.598;2023-03-12T00:38:10;99534.41;;;18.66;33.57
60212;BME280;46079;48.686;15.598;2023-03-12T00:40:36;99536.19;;;18.65;33.40
60212;BME280;46079;48.686;15.598;2023-03-12T00:43:03;99538.00;;;18.65;33.50
60212;BME280;46079;48.686;15.598;2023-03-12T00:45:29;99533.69;;;18.64;33.42
60212;BME280;46079;48.686;15.598;2023-03-12T00:47:54;99538.81;;;18.65;33.26
60212;BME280;46079;48.686;15.598;2023-03-12T00:50:19;99537.13;;;18.64;33.46
60212;BME280;46079;48.686;15.598;2023-03-12T00:52:45;99541.44;;;18.65;33.39
60212;BME280;46079;48.686;15.598;2023-03-12T00:55:10;99542.38;;;18.64;33.41
60212;BME280;46079;48.686;15.598;2023-03-12T00:57:36;99541.56;;;18.64;33.20
60212;BME280;46079;48.686;15.598;2023-03-12T01:00:02;99549.41;;;18.64;33.51
60212;BME280;46079;48.686;15.598;2023-03-12T01:02:29;99546.78;;;18.64;33.46
60212;BME280;46079;48.686;15.598;2023-03-12T01:04:55;99545.97;;;18.63;33.33
60212;BME280;46079;48.686;15.598;2023-03-12T01:07:20;99546.78;;;18.64;33.38
60212;BME280;46079;48.686;15.598;2023-03-12T01:09:45;99543.47;;;18.62;33.41
60212;BME280;46079;48.686;15.598;2023-03-12T01:12:11;99551.22;;;18.63;33.60
60212;BME280;46079;48.686;15.598;2023-03-12T01:14:36;99546.09;;;18.62;33.47
60212;BME280;46079;48.686;15.598;2023-03-12T01:17:02;99543.47;;;18.62;33.52
60212;BME280;46079;48.686;15.598;2023-03-12T01:19:27;99553.13;;;18.61;33.43
60212;BME280;46079;48.686;15.598;2023-03-12T01:21:52;99547.06;;;18.61;33.49
60212;BME280;46079;48.686;15.598;2023-03-12T01:24:18;99554.81;;;18.62;33.56
60212;BME280;46079;48.686;15.598;2023-03-12T01:26:43;99554.91;;;18.61;33.58
60212;BME280;46079;48.686;15.598;2023-03-12T01:29:09;99553.13;;;18.61;33.33
60212;BME280;46079;48.686;15.598;2023-03-12T01:31:34;99554.09;;;18.60;33.50
60212;BME280;46079;48.686;15.598;2023-03-12T01:34:00;99558.53;;;18.60;33.26
60212;BME280;46079;48.686;15.598;2023-03-12T01:36:27;99562.78;;;18.61;33.61
60212;BME280;46079;48.686;15.598;2023-03-12T01:38:56;99571.63;;;18.60;33.52
60212;BME280;46079;48.686;15.598;2023-03-12T01:41:22;99569.13;;;18.58;33.69
60212;BME280;46079;48.686;15.598;2023-03-12T01:43:48;99582.91;;;18.60;33.45
60212;BME280;46079;48.686;15.598;2023-03-12T01:49:07;99583.03;;;18.59;33.25
60212;BME280;46079;48.686;15.598;2023-03-12T01:54:16;99573.53;;;18.58;33.42
60212;BME280;46079;48.686;15.598;2023-03-12T01:56:43;99573.41;;;18.59;33.52
60212;BME280;46079;48.686;15.598;2023-03-12T01:59:15;99557.00;;;18.57;33.46
60212;BME280;46079;48.686;15.598;2023-03-12T02:01:42;99562.22;;;18.57;33.67
60212;BME280;46079;48.686;15.598;2023-03-12T02:04:08;99559.63;;;18.57;33.55
60212;BME280;46079;48.686;15.598;2023-03-12T02:06:43;99555.31;;;18.56;33.54
60212;BME280;46079;48.686;15.598;2023-03-12T02:09:10;99550.06;;;18.56;33.36
60212;BME280;46079;48.686;15.598;2023-03-12T02:11:37;99549.13;;;18.57;33.45
60212;BME280;46079;48.686;15.598;2023-03-12T02:14:02;99555.31;;;18.56;33.42
60212;BME280;46079;48.686;15.598;2023-03-12T02:16:28;99553.66;;;18.55;33.55
60212;BME280;46079;48.686;15.598;2023-03-12T02:18:55;99556.28;;;18.55;33.52
60212;BME280;46079;48.686;15.598;2023-03-12T02:21:24;99569.38;;;18.55;33.54
60212;BME280;46079;48.686;15.598;2023-03-12T02:24:09;99567.75;;;18.54;33.26
60212;BME280;46079;48.686;15.598;2023-03-12T02:26:39;99573.94;;;18.53;33.59
60212;BME280;46079;48.686;15.598;2023-03-12T02:29:06;99580.84;;;18.54;33.44
60212;BME280;46079;48.686;15.598;2023-03-12T02:31:37;99579.16;;;18.53;33.54
60212;BME280;46079;48.686;15.598;2023-03-12T02:34:05;99580.97;;;18.53;33.50
60212;BME280;46079;48.686;15.598;2023-03-12T02:36:30;99583.56;;;18.53;33.29
60212;BME280;46079;48.686;15.598;2023-03-12T02:38:56;99590.63;;;18.52;33.60
60212;BME280;46079;48.686;15.598;2023-03-12T02:41:43;99593.22;;;18.52;33.41
60212;BME280;46079;48.686;15.598;2023-03-12T02:44:13;99595.84;;;18.52;33.53
60212;BME280;46079;48.686;15.598;2023-03-12T02:46:46;99589.78;;;18.52;33.57
60212;BME280;46079;48.686;15.598;2023-03-12T02:49:12;99601.91;;;18.53;33.50
60212;BME280;46079;48.686;15.598;2023-03-12T02:51:40;99607.31;;;18.51;33.36
60212;BME280;46079;48.686;15.598;2023-03-12T02:54:06;99605.50;;;18.52;33.60
60212;BME280;46079;48.686;15.598;2023-03-12T02:56:32;99609.91;;;18.51;33.41
60212;BME280;46079;48.686;15.598;2023-03-12T02:58:58;99612.53;;;18.51;33.45
60212;BME280;46079;48.686;15.598;2023-03-12T03:01:24;99616.81;;;18.52;33.47
60212;BME280;46079;48.686;15.598;2023-03-12T03:03:50;99615.97;;;18.52;33.55
60212;BME280;46079;48.686;15.598;2023-03-12T03:06:16;99621.34;;;18.50;33.53
60212;BME280;46079;48.686;15.598;2023-03-12T03:08:42;99621.34;;;18.50;33.39
60212;BME280;46079;48.686;15.598;2023-03-12T03:11:08;99618.72;;;18.50;33.48
60212;BME280;46079;48.686;15.598;2023-03-12T03:13:34;99611.84;;;18.49;33.47
60212;BME280;46079;48.686;15.598;2023-03-12T03:16:00;99612.66;;;18.50;33.50
60212;BME280;46079;48.686;15.598;2023-03-12T03:18:26;99619.69;;;18.49;33.43
60212;BME280;46079;48.686;15.598;2023-03-12T03:21:06;99622.31;;;18.49;33.41
60212;BME280;46079;48.686;15.598;2023-03-12T03:23:32;99628.50;;;18.48;33.36
60212;BME280;46079;48.686;15.598;2023-03-12T03:25:59;99632.09;;;18.47;33.48
60212;BME280;46079;48.686;15.598;2023-03-12T03:28:27;99636.50;;;18.47;33.57
60212;BME280;46079;48.686;15.598;2023-03-12T03:30:54;99634.69;;;18.47;33.64
60212;BME280;46079;48.686;15.598;2023-03-12T03:33:23;99638.16;;;18.48;33.47
60212;BME280;46079;48.686;15.598;2023-03-12T03:35:48;99638.16;;;18.48;33.29
60212;BME280;46079;48.686;15.598;2023-03-12T03:38:14;99639.94;;;18.47;33.52
60212;BME280;46079;48.686;15.598;2023-03-12T03:40:40;99644.34;;;18.47;33.37
60212;BME280;46079;48.686;15.598;2023-03-12T03:43:05;99651.38;;;18.46;33.48
60212;BME280;46079;48.686;15.598;2023-03-12T03:45:30;99652.22;;;18.47;33.44
60212;BME280;46079;48.686;15.598;2023-03-12T03:47:56;99658.28;;;18.47;33.50
60212;BME280;46079;48.686;15.598;2023-03-12T03:50:21;99653.03;;;18.47;33.40
60212;BME280;46079;48.686;15.598;2023-03-12T03:52:47;99654.00;;;18.46;33.34
60212;BME280;46079;48.686;15.598;2023-03-12T03:55:12;99654.00;;;18.46;33.52
60212;BME280;46079;48.686;15.598;2023-03-12T03:57:38;99661.88;;;18.46;33.34
60212;BME280;46079;48.686;15.598;2023-03-12T04:00:03;99669.72;;;18.46;33.48
60212;BME280;46079;48.686;15.598;2023-03-12T04:02:34;99661.00;;;18.45;33.36
60212;BME280;46079;48.686;15.598;2023-03-12T04:05:00;99668.03;;;18.45;33.48
60212;BME280;46079;48.686;15.598;2023-03-12T04:07:26;99672.47;;;18.44;33.42
60212;BME280;46079;48.686;15.598;2023-03-12T04:09:55;99677.69;;;18.44;33.33
60212;BME280;46079;48.686;15.598;2023-03-12T04:12:22;99677.69;;;18.44;33.29
60212;BME280;46079;48.686;15.598;2023-03-12T04:14:50;99676.88;;;18.44;33.39
60212;BME280;46079;48.686;15.598;2023-03-12T04:17:16;99675.22;;;18.43;33.50
60212;BME280;46079;48.686;15.598;2023-03-12T04:19:42;99683.91;;;18.43;33.31
60212;BME280;46079;48.686;15.598;2023-03-12T04:22:07;99688.31;;;18.43;33.42
60212;BME280;46079;48.686;15.598;2023-03-12T04:24:33;99688.31;;;18.43;33.56
60212;BME280;46079;48.686;15.598;2023-03-12T04:26:58;99693.56;;;18.43;33.46
60212;BME280;46079;48.686;15.598;2023-03-12T04:29:24;99701.41;;;18.43;33.44
60212;BME280;46079;48.686;15.598;2023-03-12T04:31:49;99699.75;;;18.42;33.61
60212;BME280;46079;48.686;15.598;2023-03-12T04:34:15;99697.13;;;18.42;33.51
60212;BME280;46079;48.686;15.598;2023-03-12T04:36:40;99704.97;;;18.42;33.51
60212;BME280;46079;48.686;15.598;2023-03-12T04:39:06;99705.13;;;18.40;33.67
60212;BME280;46079;48.686;15.598;2023-03-12T04:41:33;99709.38;;;18.41;33.50
60212;BME280;46079;48.686;15.598;2023-03-12T04:43:59;99715.59;;;18.40;33.43
60212;BME280;46079;48.686;15.598;2023-03-12T04:46:25;99718.22;;;18.40;33.47
60212;BME280;46079;48.686;15.598;2023-03-12T04:48:50;99721.78;;;18.39;33.62
60212;BME280;46079;48.686;15.598;2023-03-12T04:51:16;99722.59;;;18.40;33.52
60212;BME280;46079;48.686;15.598;2023-03-12T04:53:41;99719.03;;;18.41;33.34
60212;BME280;46079;48.686;15.598;2023-03-12T04:56:07;99715.72;;;18.39;33.37
60212;BME280;46079;48.686;15.598;2023-03-12T04:58:33;99718.34;;;18.39;33.31
60212;BME280;46079;48.686;15.598;2023-03-12T05:01:00;99720.13;;;18.38;33.37
60212;BME280;46079;48.686;15.598;2023-03-12T05:03:26;99718.44;;;18.37;33.39
60212;BME280;46079;48.686;15.598;2023-03-12T05:05:51;99724.53;;;18.38;33.34
60212;BME280;46079;48.686;15.598;2023-03-12T05:08:16;99721.06;;;18.37;33.39
60212;BME280;46079;48.686;15.598;2023-03-12T05:10:42;99722.84;;;18.37;33.48
60212;BME280;46079;48.686;15.598;2023-03-12T05:13:15;99725.47;;;18.37;33.26
60212;BME280;46079;48.686;15.598;2023-03-12T05:15:41;99728.91;;;18.37;33.37
60212;BME280;46079;48.686;15.598;2023-03-12T05:18:07;99733.34;;;18.37;33.29
60212;BME280;46079;48.686;15.598;2023-03-12T05:20:32;99720.25;;;18.37;33.46
60212;BME280;46079;48.686;15.598;2023-03-12T05:22:57;99724.66;;;18.36;33.56
60212;BME280;46079;48.686;15.598;2023-03-12T05:25:23;99731.53;;;18.37;33.33
60212;BME280;46079;48.686;15.598;2023-03-12T05:27:48;99729.06;;;18.36;33.54
60212;BME280;46079;48.686;15.598;2023-03-12T05:30:14;99731.69;;;18.36;33.32
60212;BME280;46079;48.686;15.598;2023-03-12T05:32:39;99736.09;;;18.35;33.34
60212;BME280;46079;48.686;15.598;2023-03-12T05:35:05;99743.97;;;18.35;33.39
60212;BME280;46079;48.686;15.598;2023-03-12T05:37:30;99736.94;;;18.36;33.35
60212;BME280;46079;48.686;15.598;2023-03-12T05:39:56;99746.56;;;18.35;33.39
60212;BME280;46079;48.686;15.598;2023-03-12T05:42:23;99750.00;;;18.36;33.41
60212;BME280;46079;48.686;15.598;2023-03-12T05:44:49;99753.59;;;18.35;33.53
60212;BME280;46079;48.686;15.598;2023-03-12T05:47:15;99755.50;;;18.33;33.17
60212;BME280;46079;48.686;15.598;2023-03-12T05:49:41;99761.47;;;18.35;33.53
60212;BME280;46079;48.686;15.598;2023-03-12T05:52:07;99765.84;;;18.34;33.40
60212;BME280;46079;48.686;15.598;2023-03-12T05:54:32;99769.31;;;18.35;33.36
60212;BME280;46079;48.686;15.598;2023-03-12T05:56:57;99769.31;;;18.35;33.33
60212;BME280;46079;48.686;15.598;2023-03-12T05:59:23;99766.00;;;18.33;33.44
60212;BME280;46079;48.686;15.598;2023-03-12T06:01:49;99776.31;;;18.34;33.36
60212;BME280;46079;48.686;15.598;2023-03-12T06:04:14;99780.72;;;18.34;33.41
60212;BME280;46079;48.686;15.598;2023-03-12T06:06:40;99787.66;;;18.35;33.26
60212;BME280;46079;48.686;15.598;2023-03-12T06:09:05;99784.31;;;18.33;33.38
60212;BME280;46079;48.686;15.598;2023-03-12T06:11:32;99790.38;;;18.33;33.30
60212;BME280;46079;48.686;15.598;2023-03-12T06:13:58;99793.81;;;18.34;33.53
60212;BME280;46079;48.686;15.598;2023-03-12T06:16:25;99792.03;;;18.34;33.46
60212;BME280;46079;48.686;15.598;2023-03-12T06:18:54;99802.66;;;18.33;33.47
60212;BME280;46079;48.686;15.598;2023-03-12T06:21:23;99801.69;;;18.34;33.40
60212;BME280;46079;48.686;15.598;2023-03-12T06:23:49;99804.28;;;18.34;33.46
60212;BME280;46079;48.686;15.598;2023-03-12T06:26:15;99805.13;;;18.34;33.60
60212;BME280;46079;48.686;15.598;2023-03-12T06:28:41;99805.97;;;18.35;33.48
60212;BME280;46079;48.686;15.598;2023-03-12T06:31:07;99805.97;;;18.35;33.47
60212;BME280;46079;48.686;15.598;2023-03-12T06:33:33;99805.00;;;18.36;33.43
60212;BME280;46079;48.686;15.598;2023-03-12T06:36:00;99805.00;;;18.36;33.26
60212;BME280;46079;48.686;15.598;2023-03-12T06:38:26;99814.50;;;18.37;33.42
60212;BME280;46079;48.686;15.598;2023-03-12T06:40:58;99819.63;;;18.38;33.20
60212;BME280;46079;48.686;15.598;2023-03-12T06:43:25;99810.97;;;18.38;33.39
60212;BME280;46079;48.686;15.598;2023-03-12T06:45:53;99809.97;;;18.39;33.50
60212;BME280;46079;48.686;15.598;2023-03-12T06:48:19;99819.50;;;18.40;33.37
60212;BME280;46079;48.686;15.598;2023-03-12T06:50:44;99829.97;;;18.40;33.29
60212;BME280;46079;48.686;15.598;2023-03-12T06:53:10;99821.16;;;18.41;33.30
60212;BME280;46079;48.686;15.598;2023-03-12T06:55:35;99829.03;;;18.41;33.29
60212;BME280;46079;48.686;15.598;2023-03-12T06:58:00;99831.50;;;18.42;33.40
60212;BME280;46079;48.686;15.598;2023-03-12T07:00:28;99834.97;;;18.43;33.29
60212;BME280;46079;48.686;15.598;2023-03-12T07:02:54;99834.97;;;18.43;33.24
60212;BME280;46079;48.686;15.598;2023-03-12T07:05:20;99836.63;;;18.44;33.28
60212;BME280;46079;48.686;15.598;2023-03-12T07:07:45;99836.63;;;18.44;33.38
60212;BME280;46079;48.686;15.598;2023-03-12T07:10:11;99836.47;;;18.45;33.35
60212;BME280;46079;48.686;15.598;2023-03-12T07:12:36;99826.88;;;18.46;33.10
60212;BME280;46079;48.686;15.598;2023-03-12T07:15:02;99830.16;;;18.48;33.09
60212;BME280;46079;48.686;15.598;2023-03-12T07:17:28;99827.53;;;18.48;33.23
60212;BME280;46079;48.686;15.598;2023-03-12T07:19:53;99824.81;;;18.50;33.05
60212;BME280;46079;48.686;15.598;2023-03-12T07:22:18;99830.16;;;18.48;33.26
60212;BME280;46079;48.686;15.598;2023-03-12T07:24:44;99833.63;;;18.49;33.22
60212;BME280;46079;48.686;15.598;2023-03-12T07:27:09;99835.41;;;18.48;33.10
60212;BME280;46079;48.686;15.598;2023-03-12T07:29:35;99837.09;;;18.49;33.32
60212;BME280;46079;48.686;15.598;2023-03-12T07:32:00;99838.72;;;18.50;33.23
60212;BME280;46079;48.686;15.598;2023-03-12T07:34:26;99837.91;;;18.50;33.13
60212;BME280;46079;48.686;15.598;2023-03-12T07:36:51;99841.34;;;18.50;33.25
60212;BME280;46079;48.686;15.598;2023-03-12T07:39:17;99836.13;;;18.50;33.22
60212;BME280;46079;48.686;15.598;2023-03-12T07:41:43;99843.16;;;18.50;32.98
60212;BME280;46079;48.686;15.598;2023-03-12T07:44:09;99842.19;;;18.51;33.08
60212;BME280;46079;48.686;15.598;2023-03-12T07:46:34;99843.03;;;18.51;32.97
60212;BME280;46079;48.686;15.598;2023-03-12T07:49:00;99843.84;;;18.52;33.20
60212;BME280;46079;48.686;15.598;2023-03-12T07:51:26;99841.25;;;18.52;33.07
60212;BME280;46079;48.686;15.598;2023-03-12T07:53:51;99838.63;;;18.52;33.39
60212;BME280;46079;48.686;15.598;2023-03-12T07:56:17;99847.31;;;18.52;33.14
60212;BME280;46079;48.686;15.598;2023-03-12T07:58:42;99845.66;;;18.51;33.04
60212;BME280;46079;48.686;15.598;2023-03-12T08:01:08;99853.38;;;18.53;33.28
60212;BME280;46079;48.686;15.598;2023-03-12T08:03:34;99855.00;;;18.54;33.16
60212;BME280;46079;48.686;15.598;2023-03-12T08:06:02;99857.53;;;18.55;33.11
60212;BME280;46079;48.686;15.598;2023-03-12T08:08:29;99852.28;;;18.55;33.17
60212;BME280;46079;48.686;15.598;2023-03-12T08:10:55;99851.31;;;18.56;33.13
60212;BME280;46079;48.686;15.598;2023-03-12T08:13:21;99855.63;;;18.57;33.03
60212;BME280;46079;48.686;15.598;2023-03-12T08:15:52;99850.38;;;18.57;33.15
60212;BME280;46079;48.686;15.598;2023-03-12T08:18:18;99854.63;;;18.58;33.12
60212;BME280;46079;48.686;15.598;2023-03-12T08:20:44;99855.47;;;18.59;33.16
60212;BME280;46079;48.686;15.598;2023-03-12T08:23:10;99850.13;;;18.60;32.98
60212;BME280;46079;48.686;15.598;2023-03-12T08:25:36;99865.56;;;18.63;33.05
60212;BME280;46079;48.686;15.598;2023-03-12T08:28:03;99860.34;;;18.63;33.09
60212;BME280;46079;48.686;15.598;2023-03-12T08:30:29;99856.75;;;18.64;32.86
60212;BME280;46079;48.686;15.598;2023-03-12T08:32:55;99856.63;;;18.66;33.05
60212;BME280;46079;48.686;15.598;2023-03-12T08:35:20;99855.66;;;18.67;32.97
60212;BME280;46079;48.686;15.598;2023-03-12T08:37:46;99843.38;;;18.67;33.00
60212;BME280;46079;48.686;15.598;2023-03-12T08:40:12;99856.38;;;18.69;32.99
60212;BME280;46079;48.686;15.598;2023-03-12T08:42:42;99856.25;;;18.71;32.94
60212;BME280;46079;48.686;15.598;2023-03-12T08:45:09;99857.91;;;18.72;33.10
60212;BME280;46079;48.686;15.598;2023-03-12T08:47:35;99861.34;;;18.72;32.89
60212;BME280;46079;48.686;15.598;2023-03-12T08:50:02;99852.56;;;18.73;33.02
60212;BME280;46079;48.686;15.598;2023-03-12T08:52:27;99854.31;;;18.73;32.79
60212;BME280;46079;48.686;15.598;2023-03-12T08:54:53;99861.25;;;18.74;32.87
60212;BME280;46079;48.686;15.598;2023-03-12T08:57:18;99862.91;;;18.75;32.79
60212;BME280;46079;48.686;15.598;2023-03-12T08:59:43;99858.63;;;18.74;32.83
60212;BME280;46079;48.686;15.598;2023-03-12T09:02:12;99859.56;;;18.73;32.87
60212;BME280;46079;48.686;15.598;2023-03-12T09:04:37;99861.25;;;18.74;33.13
60212;BME280;46079;48.686;15.598;2023-03-12T09:07:03;99870.03;;;18.73;32.90
60212;BME280;46079;48.686;15.598;2023-03-12T09:09:29;99867.41;;;18.73;32.91
60212;BME280;46079;48.686;15.598;2023-03-12T09:11:54;99865.75;;;18.72;33.03
60212;BME280;46079;48.686;15.598;2023-03-12T09:14:20;99868.38;;;18.72;32.83
60212;BME280;46079;48.686;15.598;2023-03-12T09:16:46;99866.59;;;18.72;32.90
60212;BME280;46079;48.686;15.598;2023-03-12T09:19:11;99869.22;;;18.72;32.91
60212;BME280;46079;48.686;15.598;2023-03-12T09:21:37;99862.31;;;18.71;33.05
60212;BME280;46079;48.686;15.598;2023-03-12T09:24:04;99868.38;;;18.72;33.08
60212;BME280;46079;48.686;15.598;2023-03-12T09:26:30;99869.34;;;18.71;32.82
60212;BME280;46079;48.686;15.598;2023-03-12T09:28:56;99858.03;;;18.70;33.06
60212;BME280;46079;48.686;15.598;2023-03-12T09:31:22;99862.44;;;18.70;33.07
60212;BME280;46079;48.686;15.598;2023-03-12T09:33:47;99862.44;;;18.70;32.96
60212;BME280;46079;48.686;15.598;2023-03-12T09:36:13;99853.75;;;18.69;32.86
60212;BME280;46079;48.686;15.598;2023-03-12T09:38:39;99859.00;;;18.69;32.83
60212;BME280;46079;48.686;15.598;2023-03-12T09:41:05;99856.47;;;18.67;33.05
60212;BME280;46079;48.686;15.598;2023-03-12T09:46:30;99867.94;;;18.66;33.13
60212;BME280;46079;48.686;15.598;2023-03-12T09:49:01;99860.22;;;18.65;33.03
60212;BME280;46079;48.686;15.598;2023-03-12T09:51:32;99868.91;;;18.65;32.98
60212;BME280;46079;48.686;15.598;2023-03-12T09:54:03;99865.47;;;18.65;33.20
60212;BME280;46079;48.686;15.598;2023-03-12T09:56:30;99855.09;;;18.63;33.15
60212;BME280;46079;48.686;15.598;2023-03-12T09:58:55;99862.94;;;18.63;33.02
60212;BME280;46079;48.686;15.598;2023-03-12T10:04:11;99856.06;;;18.62;32.92
60212;BME280;46079;48.686;15.598;2023-03-12T10:09:36;99849.84;;;18.63;33.08
60212;BME280;46079;48.686;15.598;2023-03-12T10:12:42;99848.19;;;18.62;33.18
60212;BME280;46079;48.686;15.598;2023-03-12T10:26:11;99846.53;;;18.61;33.15
60212;BME280;46079;48.686;15.598;2023-03-12T10:28:54;99847.34;;;18.62;33.24
60212;BME280;46079;48.686;15.598;2023-03-12T10:31:36;99844.88;;;18.60;33.28
60212;BME280;46079;48.686;15.598;2023-03-12T10:34:28;99831.63;;;18.62;33.15
60212;BME280;46079;48.686;15.598;2023-03-12T10:36:59;99836.03;;;18.61;33.38
60212;BME280;46079;48.686;15.598;2023-03-12T10:39:27;99836.03;;;18.61;33.44
60212;BME280;46079;48.686;15.598;2023-03-12T10:41:52;99838.66;;;18.61;33.43
60212;BME280;46079;48.686;15.598;2023-03-12T10:44:22;99832.50;;;18.62;33.36
60212;BME280;46079;48.686;15.598;2023-03-12T10:47:05;99823.66;;;18.63;33.14
60212;BME280;46079;48.686;15.598;2023-03-12T10:49:33;99826.28;;;18.63;33.27
60212;BME280;46079;48.686;15.598;2023-03-12T10:54:38;99825.31;;;18.64;33.41
60212;BME280;46079;48.686;15.598;2023-03-12T10:57:06;99811.38;;;18.64;33.48
60212;BME280;46079;48.686;15.598;2023-03-12T10:59:37;99813.19;;;18.63;33.35
60212;BME280;46079;48.686;15.598;2023-03-12T11:02:23;99819.25;;;18.64;33.12
60212;BME280;46079;48.686;15.598;2023-03-12T11:04:52;99808.66;;;18.65;33.39
60212;BME280;46079;48.686;15.598;2023-03-12T11:07:30;99797.34;;;18.65;33.40
60212;BME280;46079;48.686;15.598;2023-03-12T11:10:23;99800.78;;;18.65;33.35
60212;BME280;46079;48.686;15.598;2023-03-12T11:17:46;99801.59;;;18.66;33.32
60212;BME280;46079;48.686;15.598;2023-03-12T11:20:29;99794.72;;;18.65;33.28
60212;BME280;46079;48.686;15.598;2023-03-12T11:22:55;99795.41;;;18.67;33.46
60212;BME280;46079;48.686;15.598;2023-03-12T11:25:27;99782.31;;;18.67;33.39
60212;BME280;46079;48.686;15.598;2023-03-12T11:27:56;99777.88;;;18.67;33.38
60212;BME280;46079;48.686;15.598;2023-03-12T11:30:28;99776.13;;;18.68;33.56
60212;BME280;46079;48.686;15.598;2023-03-12T11:32:57;99772.53;;;18.69;33.46
60212;BME280;46079;48.686;15.598;2023-03-12T11:38:32;99758.59;;;18.69;33.26
60212;BME280;46079;48.686;15.598;2023-03-12T11:44:01;99746.22;;;18.71;33.33
60212;BME280;46079;48.686;15.598;2023-03-12T12:00:24;99724.16;;;18.73;33.52
60212;BME280;46079;48.686;15.598;2023-03-12T12:03:06;99720.59;;;18.74;33.57
60212;BME280;46079;48.686;15.598;2023-03-12T12:19:06;99702.81;;;18.78;33.62
60212;BME280;46079;48.686;15.598;2023-03-12T12:22:05;99703.63;;;18.78;33.55
60212;BME280;46079;48.686;15.598;2023-03-12T12:27:40;99700.91;;;18.80;33.67
60212;BME280;46079;48.686;15.598;2023-03-12T12:35:24;99691.13;;;18.82;33.68
60212;BME280;46079;48.686;15.598;2023-03-12T12:38:08;99688.50;;;18.82;33.66
60212;BME280;46079;48.686;15.598;2023-03-12T12:40:42;99692.78;;;18.83;33.55
60212;BME280;46079;48.686;15.598;2023-03-12T12:43:27;99688.34;;;18.83;33.55
60212;BME280;46079;48.686;15.598;2023-03-12T12:45:57;99679.53;;;18.84;33.67
60212;BME280;46079;48.686;15.598;2023-03-12T12:48:32;99680.38;;;18.85;33.52
60212;BME280;46079;48.686;15.598;2023-03-12T12:51:00;99680.38;;;18.85;33.66
60212;BME280;46079;48.686;15.598;2023-03-12T13:01:08;99669.63;;;18.88;33.64
60212;BME280;46079;48.686;15.598;2023-03-12T13:03:36;99670.44;;;18.88;33.45
60212;BME280;46079;48.686;15.598;2023-03-12T13:06:03;99671.25;;;18.89;33.90
60212;BME280;46079;48.686;15.598;2023-03-12T13:13:48;99674.59;;;18.91;33.94
60212;BME280;46079;48.686;15.598;2023-03-12T13:16:32;99663.13;;;18.92;33.68
60212;BME280;46079;48.686;15.598;2023-03-12T13:19:02;99667.44;;;18.93;33.82
60212;BME280;46079;48.686;15.598;2023-03-12T13:24:30;99669.06;;;18.94;33.93
60212;BME280;46079;48.686;15.598;2023-03-12T13:27:17;99663.00;;;18.94;33.83
60212;BME280;46079;48.686;15.598;2023-03-12T13:29:44;99664.81;;;18.93;33.69
60212;BME280;46079;48.686;15.598;2023-03-12T13:35:32;99663.72;;;18.96;33.84
60212;BME280;46079;48.686;15.598;2023-03-12T13:38:03;99667.16;;;18.96;33.64
60212;BME280;46079;48.686;15.598;2023-03-12T13:43:13;99667.84;;;18.98;33.82
60212;BME280;46079;48.686;15.598;2023-03-12T13:48:25;99666.88;;;18.99;33.99
60212;BME280;46079;48.686;15.598;2023-03-12T13:50:57;99666.06;;;18.99;33.86
60212;BME280;46079;48.686;15.598;2023-03-12T13:53:27;99673.78;;;19.00;33.88
60212;BME280;46079;48.686;15.598;2023-03-12T13:56:05;99665.91;;;19.00;33.75
60212;BME280;46079;48.686;15.598;2023-03-12T13:58:39;99672.13;;;18.99;33.84
60212;BME280;46079;48.686;15.598;2023-03-12T14:01:06;99669.38;;;19.01;34.00
60212;BME280;46079;48.686;15.598;2023-03-12T14:03:40;99671.84;;;19.02;33.85
60212;BME280;46079;48.686;15.598;2023-03-12T14:06:11;99672.81;;;19.01;33.83
60212;BME280;46079;48.686;15.598;2023-03-12T14:16:46;99690.06;;;19.04;33.95
60212;BME280;46079;48.686;15.598;2023-03-12T14:19:18;99696.97;;;19.05;33.88
60212;BME280;46079;48.686;15.598;2023-03-12T14:21:47;99689.94;;;19.05;33.93
60212;BME280;46079;48.686;15.598;2023-03-12T14:24:35;99693.38;;;19.06;33.97
60212;BME280;46079;48.686;15.598;2023-03-12T14:27:04;99688.97;;;19.06;33.92
60212;BME280;46079;48.686;15.598;2023-03-12T14:29:43;99703.03;;;19.05;33.98
60212;BME280;46079;48.686;15.598;2023-03-12T14:32:31;99703.75;;;19.07;34.11
60212;BME280;46079;48.686;15.598;2023-03-12T14:37:51;99702.75;;;19.08;34.30
60212;BME280;46079;48.686;15.598;2023-03-12T14:43:26;99701.81;;;19.09;34.01
60212;BME280;46079;48.686;15.598;2023-03-12T14:45:57;99693.94;;;19.09;33.91
60212;BME280;46079;48.686;15.598;2023-03-12T14:48:30;99692.16;;;19.10;33.99